Time;durP1;ratioP1;P1;durP2;ratioP2;P2;SDS_P1;SDS_P2;PMS_P1;PMS_P2;Temp;Humidity;BMP_temperature;BMP_pressure;BME280_temperature;BME280_humidity;BME280_pressure;Samples;Min_cycle;Max_cycle;Signal;HPM_P1;HPM_P2
2022/12/11 00:02:02;;;;;;;13.17;9.57;;;12.40;50.70;;;;;;5053904;28;20465;-78
2022/12/11 00:04:31;;;;;;;15.30;9.90;;;12.40;50.60;;;;;;5059929;28;20455;-77
2022/12/11 00:06:59;;;;;;;15.23;9.70;;;12.40;50.60;;;;;;5046183;28;20457;-78
2022/12/11 00:09:27;;;;;;;14.40;8.90;;;12.40;50.70;;;;;;5058898;28;20462;-77
2022/12/11 00:11:55;;;;;;;18.13;9.43;;;12.40;50.70;;;;;;5050943;28;20485;-77
2022/12/11 00:14:23;;;;;;;14.90;9.70;;;12.40;50.80;;;;;;5052339;28;20465;-77
2022/12/11 00:16:51;;;;;;;13.70;9.03;;;12.40;50.80;;;;;;5046498;28;20472;-77
2022/12/11 00:19:20;;;;;;;15.63;9.97;;;12.40;50.70;;;;;;5053439;28;20508;-77
2022/12/11 00:21:48;;;;;;;12.93;8.53;;;12.40;50.90;;;;;;5052403;28;20453;-78
2022/12/11 00:24:16;;;;;;;16.87;9.60;;;12.40;50.80;;;;;;5057487;28;20447;-77
2022/12/11 00:26:44;;;;;;;15.57;9.53;;;12.30;50.80;;;;;;5062393;28;20469;-78
2022/12/11 00:29:14;;;;;;;16.80;9.60;;;12.40;50.90;;;;;;5050862;28;20478;-77
2022/12/11 00:31:43;;;;;;;15.60;9.67;;;12.40;50.90;;;;;;5056892;28;20461;-77
2022/12/11 00:34:11;;;;;;;13.90;8.67;;;12.40;50.90;;;;;;5054308;28;20466;-77
2022/12/11 00:36:40;;;;;;;15.90;9.93;;;12.40;51.00;;;;;;5051450;28;20451;-78
2022/12/11 00:39:08;;;;;;;14.70;9.30;;;12.40;50.80;;;;;;5061192;28;20481;-78
2022/12/11 00:41:36;;;;;;;17.97;9.70;;;12.40;50.90;;;;;;5050796;28;20527;-78
2022/12/11 00:44:04;;;;;;;15.27;9.93;;;12.40;50.90;;;;;;5052794;28;20430;-78
2022/12/11 00:46:32;;;;;;;19.10;8.40;;;12.30;50.90;;;;;;5053822;28;20452;-78
2022/12/11 00:49:00;;;;;;;16.57;9.53;;;12.40;51.00;;;;;;5060789;28;20467;-79
2022/12/11 00:51:28;;;;;;;17.17;9.60;;;12.40;50.90;;;;;;5044743;28;20450;-78
2022/12/11 00:53:58;;;;;;;17.00;10.17;;;12.40;51.00;;;;;;5052261;28;20445;-77
2022/12/11 00:56:26;;;;;;;17.80;8.83;;;12.40;51.00;;;;;;5054547;28;20447;-77
2022/12/11 00:58:54;;;;;;;14.17;9.33;;;12.40;51.00;;;;;;5048541;28;20484;-78
2022/12/11 01:01:23;;;;;;;13.60;8.60;;;12.40;51.10;;;;;;5056894;28;20442;-78
2022/12/11 01:03:51;;;;;;;15.57;9.27;;;12.40;51.10;;;;;;5057096;28;20528;-78
2022/12/11 01:06:20;;;;;;;14.57;9.10;;;12.40;51.10;;;;;;5056451;28;20459;-78
2022/12/11 01:10:22;;;;;;;12.70;8.00;;;12.30;51.00;;;;;;5051025;28;20467;-78
2022/12/11 01:11:36;;;;;;;14.90;8.60;;;12.40;51.20;;;;;;5044957;28;20439;-78
2022/12/11 01:14:04;;;;;;;14.07;9.10;;;12.40;51.10;;;;;;5048957;28;20462;-79
2022/12/11 01:16:32;;;;;;;15.50;8.70;;;12.30;50.90;;;;;;5056202;28;20442;-79
2022/12/11 01:19:02;;;;;;;11.23;8.20;;;12.30;51.20;;;;;;5055439;28;20494;-78
2022/12/11 01:21:30;;;;;;;13.47;8.90;;;12.30;51.20;;;;;;5035986;28;20447;-78
2022/12/11 01:23:58;;;;;;;16.00;9.67;;;12.40;51.20;;;;;;5045968;28;20465;-78
2022/12/11 01:26:26;;;;;;;15.97;9.80;;;12.30;51.10;;;;;;5044588;28;20447;-78
2022/12/11 01:28:56;;;;;;;13.63;8.73;;;12.30;51.20;;;;;;5050776;28;20480;-78
2022/12/11 01:31:24;;;;;;;13.73;8.70;;;12.30;51.10;;;;;;5054450;28;20461;-78
2022/12/11 01:33:53;;;;;;;15.10;9.40;;;12.30;51.10;;;;;;5049698;28;20450;-79
2022/12/11 01:36:21;;;;;;;19.00;9.70;;;12.30;51.10;;;;;;5057487;28;20443;-78
2022/12/11 01:38:50;;;;;;;15.30;9.27;;;12.30;51.20;;;;;;5060140;28;20489;-78
2022/12/11 01:41:18;;;;;;;13.60;8.60;;;12.30;51.00;;;;;;5053348;28;20455;-78
2022/12/11 01:44:01;;;;;;;16.20;9.80;;;12.30;51.00;;;;;;5053861;28;20450;-79
2022/12/11 01:46:30;;;;;;;14.30;9.40;;;12.30;51.00;;;;;;5050599;28;20469;-78
2022/12/11 01:48:59;;;;;;;19.37;10.33;;;12.30;51.00;;;;;;5059537;28;20520;-78
2022/12/11 01:51:27;;;;;;;19.80;9.53;;;12.30;51.10;;;;;;5052089;28;20463;-78
2022/12/11 01:53:57;;;;;;;16.17;9.60;;;12.30;51.10;;;;;;5055814;28;20449;-78
2022/12/11 01:56:25;;;;;;;18.10;10.40;;;12.30;51.10;;;;;;5051813;28;20462;-78
2022/12/11 01:58:55;;;;;;;18.50;10.13;;;12.30;51.10;;;;;;5060465;28;20478;-77
2022/12/11 02:01:26;;;;;;;18.27;9.90;;;12.30;51.10;;;;;;5056011;28;20481;-79
2022/12/11 02:03:54;;;;;;;18.63;9.93;;;12.30;51.10;;;;;;5048927;28;20454;-77
2022/12/11 02:06:34;;;;;;;20.00;10.70;;;12.30;51.10;;;;;;5061385;28;20473;-78
2022/12/11 02:09:02;;;;;;;25.63;11.70;;;12.30;51.00;;;;;;5060353;28;20466;-79
2022/12/11 02:11:35;;;;;;;23.40;11.03;;;12.30;51.10;;;;;;5066280;28;20458;-78
2022/12/11 02:14:05;;;;;;;22.07;10.23;;;12.30;51.10;;;;;;5053540;28;20443;-78
2022/12/11 02:16:37;;;;;;;21.20;10.80;;;12.30;51.10;;;;;;5052312;28;20466;-78
2022/12/11 02:19:09;;;;;;;19.57;10.67;;;12.30;51.10;;;;;;5060788;28;20469;-78
2022/12/11 02:21:40;;;;;;;23.67;10.13;;;12.30;51.10;;;;;;5051644;28;20450;-79
2022/12/11 02:24:21;;;;;;;18.63;10.07;;;12.30;51.20;;;;;;5056120;28;20450;-79
2022/12/11 02:27:22;;;;;;;22.07;9.90;;;12.30;51.10;;;;;;5064181;28;20458;-78
2022/12/11 02:29:53;;;;;;;23.87;10.97;;;12.30;51.20;;;;;;5056301;28;20451;-78
2022/12/11 02:32:22;;;;;;;19.27;10.07;;;12.30;51.20;;;;;;5054597;28;20462;-78
2022/12/11 02:34:54;;;;;;;19.87;9.70;;;12.30;51.20;;;;;;5058622;28;20456;-80
2022/12/11 02:37:23;;;;;;;19.97;10.27;;;12.30;51.20;;;;;;5061357;28;20489;-78
2022/12/11 02:39:52;;;;;;;18.33;10.23;;;12.30;51.10;;;;;;5056678;28;20546;-78
2022/12/11 02:42:21;;;;;;;20.37;10.43;;;12.30;51.30;;;;;;5054415;28;20464;-78
2022/12/11 02:44:49;;;;;;;19.70;10.23;;;12.30;51.30;;;;;;5056372;28;20477;-78
2022/12/11 02:47:18;;;;;;;19.20;9.63;;;12.30;51.40;;;;;;5052758;28;20477;-78
2022/12/11 02:49:48;;;;;;;23.90;11.30;;;12.30;51.30;;;;;;5051839;28;20450;-78
2022/12/11 02:52:17;;;;;;;22.03;10.57;;;12.30;51.30;;;;;;5051855;28;20473;-78
2022/12/11 02:54:45;;;;;;;21.73;10.20;;;12.30;51.20;;;;;;5055278;28;20465;-77
2022/12/11 02:57:15;;;;;;;22.90;11.30;;;12.30;51.20;;;;;;5058134;28;20473;-78
2022/12/11 02:59:44;;;;;;;22.10;10.40;;;12.30;51.20;;;;;;5056285;28;20463;-78
2022/12/11 03:02:12;;;;;;;24.80;10.97;;;12.30;51.10;;;;;;5056490;28;20465;-78
2022/12/11 03:04:41;;;;;;;22.67;10.97;;;12.30;51.30;;;;;;5056962;28;20458;-77
2022/12/11 03:07:12;;;;;;;21.27;10.93;;;12.20;51.20;;;;;;5044710;28;20478;-78
2022/12/11 03:09:40;;;;;;;21.97;11.10;;;12.20;51.30;;;;;;5048950;28;20443;-77
2022/12/11 03:12:08;;;;;;;18.70;10.03;;;12.20;51.40;;;;;;5049263;28;20446;-79
2022/12/11 03:14:36;;;;;;;23.70;10.77;;;12.20;51.30;;;;;;5049913;28;20458;-78
2022/12/11 03:17:07;;;;;;;22.90;11.10;;;12.30;51.40;;;;;;5045186;28;20451;-79
2022/12/11 03:19:37;;;;;;;22.77;10.73;;;12.20;51.40;;;;;;5046849;28;21187;-78
2022/12/11 03:22:09;;;;;;;23.70;12.40;;;12.30;51.60;;;;;;5049037;28;20470;-77
2022/12/11 03:24:39;;;;;;;23.30;10.40;;;12.20;51.30;;;;;;5053371;28;20471;-77
2022/12/11 03:27:10;;;;;;;23.70;10.90;;;12.20;51.40;;;;;;5049611;28;20451;-77
2022/12/11 03:29:40;;;;;;;23.17;11.57;;;12.20;51.40;;;;;;5047359;28;20448;-78
2022/12/11 03:32:09;;;;;;;24.67;10.60;;;12.20;51.40;;;;;;5062509;28;20457;-78
2022/12/11 03:34:41;;;;;;;20.67;10.37;;;12.20;51.40;;;;;;5048815;28;20462;-77
2022/12/11 03:37:10;;;;;;;22.27;11.07;;;12.30;51.60;;;;;;5048636;28;20485;-78
2022/12/11 03:39:41;;;;;;;23.50;10.50;;;12.20;51.40;;;;;;5052563;28;20490;-78
2022/12/11 03:42:11;;;;;;;22.60;11.33;;;12.20;51.50;;;;;;5053131;28;20465;-78
2022/12/11 03:44:40;;;;;;;25.80;11.53;;;12.20;51.60;;;;;;5047081;28;20462;-78
2022/12/11 03:47:08;;;;;;;22.00;10.50;;;12.20;51.50;;;;;;5058919;28;20450;-77
2022/12/11 03:49:38;;;;;;;20.57;10.97;;;12.20;51.60;;;;;;5054743;28;20459;-77
2022/12/11 03:52:06;;;;;;;23.50;10.77;;;12.20;51.50;;;;;;5051115;28;20450;-78
2022/12/11 03:54:36;;;;;;;25.73;11.20;;;12.20;51.50;;;;;;5057028;28;20455;-77
2022/12/11 03:57:04;;;;;;;26.37;10.97;;;12.20;51.60;;;;;;5042581;28;20454;-78
2022/12/11 03:59:32;;;;;;;24.27;11.17;;;12.20;51.60;;;;;;5054086;28;20462;-77
2022/12/11 04:02:01;;;;;;;28.50;11.27;;;12.20;51.60;;;;;;5045666;28;20455;-78
2022/12/11 04:04:29;;;;;;;25.17;11.00;;;12.20;51.70;;;;;;5050204;28;20500;-78
2022/12/11 04:06:57;;;;;;;22.90;10.67;;;12.20;51.60;;;;;;5058070;28;20450;-78
2022/12/11 04:09:25;;;;;;;28.40;11.20;;;12.20;51.80;;;;;;5048342;28;20448;-78
2022/12/11 04:11:55;;;;;;;22.97;10.57;;;12.20;51.80;;;;;;5047933;28;20451;-78
2022/12/11 04:17:08;;;;;;;23.70;11.10;;;12.20;51.70;;;;;;5053199;28;20478;-78
2022/12/11 04:25:08;;;;;;;25.40;11.03;;;12.20;51.80;;;;;;5047400;28;20461;-79
2022/12/11 04:27:51;;;;;;;20.60;10.10;;;12.10;51.80;;;;;;5047978;28;20474;-78
2022/12/11 04:30:20;;;;;;;21.97;10.30;;;12.10;51.80;;;;;;5053783;28;20452;-79
2022/12/11 04:32:49;;;;;;;24.87;10.73;;;12.10;51.90;;;;;;5046183;28;20461;-78
2022/12/11 04:35:17;;;;;;;21.87;10.40;;;12.10;52.00;;;;;;5051358;28;20451;-79
2022/12/11 04:37:45;;;;;;;19.87;10.37;;;12.20;52.00;;;;;;5055197;28;20486;-78
2022/12/11 04:40:15;;;;;;;26.00;11.30;;;12.10;51.90;;;;;;5050285;28;20525;-79
2022/12/11 04:42:45;;;;;;;23.00;10.50;;;12.10;51.80;;;;;;5052158;28;20726;-78
2022/12/11 04:45:13;;;;;;;22.07;10.07;;;12.10;51.90;;;;;;5049294;28;20449;-78
2022/12/11 04:47:41;;;;;;;25.07;11.23;;;12.20;52.00;;;;;;5048682;28;20470;-78
2022/12/11 04:50:10;;;;;;;20.77;10.50;;;12.20;52.00;;;;;;5057912;28;20878;-78
2022/12/11 04:52:38;;;;;;;19.60;10.03;;;12.20;52.00;;;;;;5048340;28;20980;-78
2022/12/11 04:55:07;;;;;;;23.07;10.63;;;12.20;52.10;;;;;;5045304;28;20992;-79
2022/12/11 04:57:36;;;;;;;27.27;10.03;;;12.10;51.90;;;;;;5056692;28;20505;-78
2022/12/11 05:00:07;;;;;;;20.03;10.13;;;12.10;52.10;;;;;;5045755;28;20470;-78
2022/12/11 05:02:36;;;;;;;27.87;10.97;;;12.20;52.10;;;;;;5058012;28;20443;-78
2022/12/11 05:05:04;;;;;;;21.60;10.43;;;12.20;52.00;;;;;;5058975;28;20446;-80
2022/12/11 05:07:32;;;;;;;21.10;10.00;;;12.10;52.10;;;;;;5055499;28;20478;-78
2022/12/11 05:10:01;;;;;;;24.70;10.63;;;12.10;52.00;;;;;;5055308;28;20447;-78
2022/12/11 05:12:29;;;;;;;19.67;9.60;;;12.10;52.10;;;;;;5047001;28;20462;-78
2022/12/11 05:14:57;;;;;;;22.07;10.07;;;12.10;52.20;;;;;;5053901;28;20459;-79
2022/12/11 05:17:26;;;;;;;23.30;10.30;;;12.10;52.10;;;;;;5052362;28;20500;-78
2022/12/11 05:19:55;;;;;;;21.87;10.37;;;12.10;52.10;;;;;;5050555;28;20463;-78
2022/12/11 05:22:23;;;;;;;19.53;9.10;;;12.10;52.20;;;;;;5049504;28;20461;-78
2022/12/11 05:24:52;;;;;;;22.77;10.33;;;12.10;52.10;;;;;;5047666;28;20810;-79
2022/12/11 05:27:20;;;;;;;22.57;10.37;;;12.10;52.10;;;;;;5048625;28;20481;-78
2022/12/11 05:29:49;;;;;;;23.53;10.80;;;12.10;52.10;;;;;;5049835;28;20451;-79
2022/12/11 05:32:22;;;;;;;22.30;10.43;;;12.10;52.00;;;;;;5050010;28;20545;-78
2022/12/11 05:34:52;;;;;;;23.70;10.50;;;12.10;52.20;;;;;;5051202;28;20450;-79
2022/12/11 05:37:20;;;;;;;21.73;10.17;;;12.10;52.10;;;;;;5052671;28;20481;-79
2022/12/11 05:39:48;;;;;;;20.67;9.83;;;12.10;52.20;;;;;;5054191;28;20470;-79
2022/12/11 05:42:16;;;;;;;24.80;10.77;;;12.10;52.30;;;;;;5053988;28;20457;-79
2022/12/11 05:44:44;;;;;;;18.87;9.27;;;12.10;52.20;;;;;;5048693;28;20466;-79
2022/12/11 05:47:12;;;;;;;22.40;10.70;;;12.10;52.30;;;;;;5050368;28;20497;-79
2022/12/11 05:49:41;;;;;;;18.83;9.80;;;12.10;52.30;;;;;;5055613;28;20446;-79
2022/12/11 05:52:10;;;;;;;22.67;11.00;;;12.10;52.30;;;;;;5052571;28;20446;-79
2022/12/11 05:54:39;;;;;;;18.83;9.27;;;12.10;52.30;;;;;;5057762;28;20439;-79
2022/12/11 05:57:07;;;;;;;21.70;10.50;;;12.10;52.20;;;;;;5077444;28;20449;-80
2022/12/11 05:59:35;;;;;;;20.90;10.33;;;12.10;52.20;;;;;;5080442;28;20493;-80
2022/12/11 06:02:03;;;;;;;18.03;9.60;;;12.10;52.20;;;;;;5083728;28;20437;-79
2022/12/11 06:04:31;;;;;;;19.20;9.10;;;12.10;52.20;;;;;;5082375;28;20468;-80
2022/12/11 06:06:59;;;;;;;18.00;8.80;;;12.10;52.30;;;;;;5083064;28;20442;-79
2022/12/11 06:09:28;;;;;;;18.83;9.83;;;12.10;52.20;;;;;;5082619;28;20445;-78
2022/12/11 06:11:56;;;;;;;18.60;9.40;;;12.00;52.30;;;;;;5079545;28;20446;-77
2022/12/11 06:14:25;;;;;;;20.47;9.97;;;12.00;52.20;;;;;;5077919;28;20445;-78
2022/12/11 06:16:58;;;;;;;18.90;10.10;;;12.00;52.30;;;;;;5083083;28;20427;-77
2022/12/11 06:19:27;;;;;;;19.63;10.00;;;12.00;52.30;;;;;;5074727;28;20465;-77
2022/12/11 06:22:03;;;;;;;21.37;10.00;;;12.10;52.40;;;;;;5085736;28;20453;-77
2022/12/11 06:24:35;;;;;;;19.77;9.83;;;12.00;52.30;;;;;;5065310;28;20454;-77
2022/12/11 06:27:04;;;;;;;17.00;9.20;;;12.10;52.40;;;;;;5078845;28;20458;-78
2022/12/11 06:29:32;;;;;;;18.13;9.50;;;12.10;52.50;;;;;;5068507;28;20450;-78
2022/12/11 06:32:00;;;;;;;20.60;9.63;;;12.10;52.40;;;;;;5063132;28;20486;-79
2022/12/11 06:34:28;;;;;;;19.57;9.30;;;12.00;52.30;;;;;;5063458;28;20455;-78
2022/12/11 06:36:58;;;;;;;20.40;9.90;;;12.00;52.40;;;;;;5059528;28;20454;-78
2022/12/11 06:39:26;;;;;;;17.33;10.07;;;12.00;52.40;;;;;;5067595;28;20443;-79
2022/12/11 06:41:56;;;;;;;17.33;9.23;;;12.00;52.40;;;;;;5057869;28;20953;-79
2022/12/11 06:44:24;;;;;;;18.80;9.43;;;12.00;52.40;;;;;;5069152;28;20461;-79
2022/12/11 06:46:53;;;;;;;19.33;10.43;;;12.00;52.40;;;;;;5061538;28;20454;-80
2022/12/11 06:49:21;;;;;;;18.70;8.87;;;12.00;52.40;;;;;;5062115;28;20452;-78
2022/12/11 06:51:49;;;;;;;16.57;8.83;;;12.00;52.40;;;;;;5056291;28;20459;-79
2022/12/11 06:54:17;;;;;;;18.30;9.67;;;12.00;52.40;;;;;;5054211;28;20465;-78
2022/12/11 06:56:46;;;;;;;18.83;9.43;;;12.00;52.40;;;;;;5049241;28;20451;-77
2022/12/11 06:59:17;;;;;;;17.13;9.13;;;12.00;53.20;;;;;;5052814;28;20542;-78
2022/12/11 07:01:45;;;;;;;19.10;9.40;;;12.00;52.50;;;;;;5048194;28;20474;-78
2022/12/11 07:04:13;;;;;;;16.30;8.93;;;12.00;52.40;;;;;;5054563;28;20477;-78
2022/12/11 07:06:41;;;;;;;16.70;8.37;;;12.00;52.30;;;;;;5056232;28;20451;-78
2022/12/11 07:09:10;;;;;;;18.30;9.20;;;12.00;52.50;;;;;;5051978;28;20469;-78
2022/12/11 07:11:38;;;;;;;16.83;9.10;;;12.00;52.40;;;;;;5052097;28;20456;-78
2022/12/11 07:14:06;;;;;;;17.97;9.10;;;12.00;52.50;;;;;;5056845;28;20451;-78
2022/12/11 07:16:36;;;;;;;19.33;9.27;;;12.00;52.40;;;;;;5056286;28;20481;-78
2022/12/11 07:19:04;;;;;;;19.87;9.90;;;12.00;52.40;;;;;;5058478;28;20477;-78
2022/12/11 07:21:35;;;;;;;18.07;10.07;;;12.00;52.50;;;;;;5055570;28;20478;-78
2022/12/11 07:24:04;;;;;;;17.70;9.50;;;12.00;52.50;;;;;;5061522;28;20454;-79
2022/12/11 07:26:32;;;;;;;18.60;9.87;;;12.00;52.60;;;;;;5059479;28;20458;-78
2022/12/11 07:29:00;;;;;;;18.43;9.30;;;12.00;52.40;;;;;;5055039;28;20473;-78
2022/12/11 07:31:29;;;;;;;20.03;10.43;;;12.00;52.50;;;;;;5055839;28;20447;-78
2022/12/11 07:34:00;;;;;;;19.23;10.30;;;11.90;52.50;;;;;;5056618;28;20457;-79
2022/12/11 07:36:28;;;;;;;19.27;10.20;;;12.00;52.60;;;;;;5054927;28;20531;-78
2022/12/11 07:38:56;;;;;;;20.03;9.90;;;12.00;52.60;;;;;;5052805;28;20505;-78
2022/12/11 07:41:26;;;;;;;17.10;10.03;;;12.00;52.50;;;;;;5056183;28;20480;-78
2022/12/11 07:43:54;;;;;;;18.70;9.77;;;12.00;52.60;;;;;;5054356;28;20462;-77
2022/12/11 07:46:25;;;;;;;17.20;9.27;;;12.00;52.50;;;;;;5055043;28;20465;-77
2022/12/11 07:48:54;;;;;;;17.93;8.73;;;12.00;52.60;;;;;;5056870;28;20560;-77
2022/12/11 07:51:26;;;;;;;19.37;9.07;;;12.00;52.60;;;;;;5050763;28;20478;-78
2022/12/11 07:53:56;;;;;;;18.97;9.83;;;12.00;53.20;;;;;;5049030;28;20457;-77
2022/12/11 07:56:25;;;;;;;18.17;9.77;;;12.00;52.60;;;;;;5058613;28;20468;-78
2022/12/11 07:58:53;;;;;;;20.20;10.03;;;12.00;52.60;;;;;;5047833;28;20486;-78
2022/12/11 08:01:21;;;;;;;19.57;10.63;;;12.00;52.50;;;;;;5062024;28;20473;-79
2022/12/11 08:03:49;;;;;;;20.73;10.20;;;12.00;52.60;;;;;;5054142;28;20446;-78
2022/12/11 08:06:20;;;;;;;19.33;9.03;;;12.00;52.60;;;;;;5057131;28;20459;-78
2022/12/11 08:08:49;;;;;;;19.13;9.20;;;12.00;52.50;;;;;;5055770;28;20478;-78
2022/12/11 08:11:17;;;;;;;21.47;9.63;;;12.00;52.70;;;;;;5056228;28;20449;-78
2022/12/11 08:13:45;;;;;;;17.50;9.77;;;12.00;52.60;;;;;;5052525;28;20451;-78
2022/12/11 08:16:14;;;;;;;16.60;9.43;;;12.00;52.50;;;;;;5052980;28;20462;-78
2022/12/11 08:18:42;;;;;;;18.13;9.20;;;12.00;52.50;;;;;;5054530;28;20474;-79
2022/12/11 08:21:12;;;;;;;15.80;9.23;;;12.00;52.60;;;;;;5049370;28;20854;-79
2022/12/11 08:23:39;;;;;;;17.10;9.10;;;12.00;52.60;;;;;;5049739;28;20478;-78
2022/12/11 08:26:10;;;;;;;17.40;9.30;;;12.00;52.50;;;;;;5051899;28;20446;-78
2022/12/11 08:28:38;;;;;;;15.90;8.77;;;12.00;52.50;;;;;;5050438;28;20482;-78
2022/12/11 08:31:07;;;;;;;15.03;8.67;;;12.00;52.50;;;;;;5053664;28;20458;-78
2022/12/11 08:33:35;;;;;;;17.27;9.57;;;12.00;52.60;;;;;;5054377;28;20458;-78
2022/12/11 08:36:03;;;;;;;15.73;8.67;;;12.00;52.60;;;;;;5059452;28;20454;-79
2022/12/11 08:38:31;;;;;;;18.43;9.50;;;12.00;52.60;;;;;;5053254;28;20483;-78
2022/12/11 08:40:59;;;;;;;16.87;8.63;;;12.10;52.50;;;;;;5052648;28;20450;-78
2022/12/11 08:43:29;;;;;;;16.70;9.43;;;12.00;52.50;;;;;;5054901;28;20458;-78
2022/12/11 08:45:57;;;;;;;14.53;8.50;;;12.10;52.60;;;;;;5051026;28;20450;-78
2022/12/11 08:48:25;;;;;;;18.27;9.40;;;12.10;52.60;;;;;;5050971;28;20470;-78
2022/12/11 08:50:53;;;;;;;14.17;8.10;;;12.10;52.60;;;;;;5050059;28;20450;-78
2022/12/11 08:53:21;;;;;;;15.43;8.23;;;12.10;52.60;;;;;;5049538;28;20507;-78
2022/12/11 08:55:48;;;;;;;14.67;8.50;;;12.10;52.60;;;;;;5054602;28;20451;-78
2022/12/11 08:58:17;;;;;;;16.40;9.03;;;12.00;52.60;;;;;;5055435;28;20480;-78
2022/12/11 09:00:46;;;;;;;17.30;8.93;;;12.10;52.70;;;;;;5057075;28;20463;-78
2022/12/11 09:03:14;;;;;;;16.27;8.50;;;12.10;52.70;;;;;;5060854;28;20557;-79
2022/12/11 09:05:42;;;;;;;15.77;9.50;;;12.10;52.60;;;;;;5054957;28;20458;-78
2022/12/11 09:08:10;;;;;;;15.77;8.30;;;12.10;52.80;;;;;;5063455;28;20466;-79
2022/12/11 09:10:38;;;;;;;14.40;8.77;;;12.10;52.60;;;;;;5062932;28;20481;-78
2022/12/11 09:13:06;;;;;;;17.13;9.00;;;12.10;52.70;;;;;;5065806;28;20454;-79
2022/12/11 09:15:34;;;;;;;14.50;8.00;;;12.10;52.70;;;;;;5067983;28;20459;-79
2022/12/11 09:18:05;;;;;;;17.63;8.73;;;12.10;52.70;;;;;;5069134;28;20465;-78
2022/12/11 09:20:33;;;;;;;16.67;8.53;;;12.10;52.80;;;;;;5066722;28;20447;-80
2022/12/11 09:23:01;;;;;;;15.13;8.70;;;12.10;52.60;;;;;;5061016;28;20478;-79
2022/12/11 09:25:29;;;;;;;17.17;8.80;;;12.20;52.80;;;;;;5067082;28;20454;-79
2022/12/11 09:27:57;;;;;;;15.53;8.53;;;12.20;52.60;;;;;;5064071;28;20485;-79
2022/12/11 09:30:26;;;;;;;15.07;8.70;;;12.20;52.70;;;;;;5068065;28;20454;-78
2022/12/11 09:32:54;;;;;;;15.93;9.10;;;12.20;52.70;;;;;;5064139;28;20454;-78
2022/12/11 09:35:25;;;;;;;14.73;8.10;;;12.20;52.60;;;;;;5067067;28;20465;-79
2022/12/11 09:37:56;;;;;;;15.00;8.37;;;12.20;52.60;;;;;;5063994;28;20486;-78
2022/12/11 09:41:00;;;;;;;14.10;7.80;;;12.20;52.70;;;;;;5069367;28;20485;-79
2022/12/11 09:43:49;;;;;;;11.77;7.40;;;12.20;52.70;;;;;;5057859;28;20451;-78
2022/12/11 09:46:24;;;;;;;14.40;8.20;;;12.10;52.60;;;;;;5062965;28;21036;-79
2022/12/11 09:49:01;;;;;;;14.40;8.00;;;12.10;52.70;;;;;;5058382;28;20482;-78
2022/12/11 09:51:36;;;;;;;14.00;8.17;;;12.10;52.70;;;;;;5064583;28;20481;-80
2022/12/11 09:54:15;;;;;;;15.27;8.30;;;12.20;52.60;;;;;;5057239;28;20454;-80
2022/12/11 09:56:55;;;;;;;17.37;8.60;;;12.20;52.60;;;;;;5064978;28;20470;-79
2022/12/11 09:59:29;;;;;;;16.03;8.60;;;12.20;52.60;;;;;;5054603;28;20455;-80
2022/12/11 10:02:04;;;;;;;14.63;8.87;;;12.20;52.60;;;;;;5059141;28;20563;-78
2022/12/11 10:04:40;;;;;;;15.37;8.00;;;12.20;52.50;;;;;;5062638;28;20490;-80
2022/12/11 10:07:13;;;;;;;16.40;8.23;;;12.20;52.50;;;;;;5063615;28;20549;-78
2022/12/11 10:09:46;;;;;;;14.50;7.43;;;12.20;52.40;;;;;;5054570;28;20525;-79
2022/12/11 10:12:27;;;;;;;14.63;8.07;;;12.20;52.50;;;;;;5062103;28;20470;-80
2022/12/11 10:15:08;;;;;;;14.60;8.43;;;12.10;52.40;;;;;;5065044;28;20454;-80
2022/12/11 10:17:37;;;;;;;13.70;7.67;;;12.10;52.40;;;;;;5052520;28;20467;-79
2022/12/11 10:20:14;;;;;;;15.70;8.20;;;12.10;52.60;;;;;;5053972;28;20530;-79
2022/12/11 10:22:43;;;;;;;14.37;8.43;;;12.10;52.50;;;;;;5062382;28;20466;-80
2022/12/11 10:25:16;;;;;;;14.83;7.93;;;12.10;52.50;;;;;;5065150;28;20534;-78
2022/12/11 10:27:44;;;;;;;13.37;7.70;;;12.10;52.60;;;;;;5062055;28;20466;-79
2022/12/11 10:30:15;;;;;;;13.57;7.83;;;12.10;52.60;;;;;;5056501;28;20477;-79
2022/12/11 10:32:57;;;;;;;13.10;7.83;;;12.10;52.60;;;;;;5066433;28;20465;-79
2022/12/11 10:35:29;;;;;;;13.67;7.00;;;12.10;52.50;;;;;;5065977;28;20441;-80
2022/12/11 10:38:06;;;;;;;15.83;7.00;;;12.10;53.20;;;;;;5059535;28;20460;-79
2022/12/11 10:40:35;;;;;;;13.73;8.00;;;12.10;52.60;;;;;;5058251;28;20450;-80
2022/12/11 10:43:02;;;;;;;13.63;7.87;;;12.10;53.00;;;;;;5065378;28;20470;-79
2022/12/11 10:45:30;;;;;;;14.30;7.80;;;12.10;52.60;;;;;;5064857;28;20504;-80
2022/12/11 10:48:03;;;;;;;15.00;8.00;;;12.10;52.50;;;;;;5056002;28;20463;-80
2022/12/11 10:50:30;;;;;;;12.93;7.37;;;12.20;52.60;;;;;;5063417;28;20498;-79
2022/12/11 10:53:00;;;;;;;14.07;7.60;;;12.10;52.40;;;;;;5061947;28;20458;-79
2022/12/11 10:55:29;;;;;;;12.53;7.33;;;12.10;52.50;;;;;;5059546;28;20471;-79
2022/12/11 10:57:59;;;;;;;14.67;7.77;;;12.10;52.80;;;;;;5063909;28;20478;-79
2022/12/11 11:00:31;;;;;;;14.67;7.90;;;12.10;52.60;;;;;;5064377;28;20463;-80
2022/12/11 11:02:59;;;;;;;14.20;8.07;;;12.10;52.50;;;;;;5058636;28;20472;-78
2022/12/11 11:05:29;;;;;;;14.03;7.37;;;12.10;52.60;;;;;;5062325;28;20446;-79
2022/12/11 11:08:12;;;;;;;14.00;7.63;;;12.10;52.60;;;;;;5069771;28;20481;-79
2022/12/11 11:10:53;;;;;;;13.93;7.60;;;12.10;52.50;;;;;;5056758;28;20518;-80
2022/12/11 11:13:22;;;;;;;13.90;7.43;;;12.10;52.50;;;;;;5062343;28;20454;-79
2022/12/11 11:15:50;;;;;;;12.07;7.40;;;12.20;52.70;;;;;;5056507;28;20455;-79
2022/12/11 11:18:22;;;;;;;11.77;7.63;;;12.10;52.50;;;;;;5060992;28;20471;-76
2022/12/11 11:20:50;;;;;;;11.90;6.50;;;12.10;52.70;;;;;;5052200;28;20457;-78
2022/12/11 11:23:21;;;;;;;11.73;7.10;;;12.10;52.50;;;;;;5049484;28;20474;-78
2022/12/11 11:25:50;;;;;;;11.40;6.43;;;12.10;52.50;;;;;;5049836;28;20461;-77
2022/12/11 11:28:20;;;;;;;12.50;7.73;;;12.10;52.50;;;;;;5055088;28;20470;-79
2022/12/11 11:31:02;;;;;;;13.90;7.60;;;12.10;52.40;;;;;;5057591;28;20522;-78
2022/12/11 11:33:31;;;;;;;12.37;6.93;;;12.10;52.40;;;;;;5058708;28;20490;-79
2022/12/11 11:36:01;;;;;;;11.23;7.00;;;12.10;52.50;;;;;;5054510;28;20454;-78
2022/12/11 11:38:31;;;;;;;14.97;7.37;;;12.10;52.60;;;;;;5053075;28;20711;-78
2022/12/11 11:41:05;;;;;;;16.07;7.83;;;12.10;52.50;;;;;;5049711;28;20510;-78
2022/12/11 11:43:43;;;;;;;12.57;7.00;;;12.10;52.50;;;;;;5053680;28;20561;-79
2022/12/11 11:46:13;;;;;;;11.40;7.37;;;12.10;52.60;;;;;;5056167;28;20454;-78
2022/12/11 11:48:48;;;;;;;12.90;7.40;;;12.10;52.60;;;;;;5048486;28;20528;-79
2022/12/11 11:51:17;;;;;;;10.97;6.67;;;12.10;52.60;;;;;;5061050;28;20533;-78
2022/12/11 11:53:48;;;;;;;14.00;8.00;;;12.10;52.50;;;;;;5057943;28;20450;-79
2022/12/11 11:56:20;;;;;;;14.40;7.90;;;12.10;52.60;;;;;;5050456;28;20466;-79
2022/12/11 11:58:58;;;;;;;13.43;7.10;;;12.10;52.80;;;;;;5054946;28;20474;-78
2022/12/11 12:01:26;;;;;;;13.43;7.97;;;12.10;52.60;;;;;;5064144;28;20523;-79
2022/12/11 12:03:54;;;;;;;10.87;6.50;;;12.10;52.60;;;;;;5061959;28;20476;-79
2022/12/11 12:06:29;;;;;;;15.07;7.80;;;12.10;53.10;;;;;;5052737;28;20470;-80
2022/12/11 12:09:03;;;;;;;13.03;8.17;;;12.10;52.50;;;;;;5058359;28;20462;-80
2022/12/11 12:11:34;;;;;;;11.67;7.10;;;12.10;52.70;;;;;;5059451;28;20453;-77
2022/12/11 12:14:07;;;;;;;12.97;7.17;;;12.10;52.50;;;;;;5056973;28;20443;-78
2022/12/11 12:17:01;;;;;;;11.03;6.60;;;12.10;52.40;;;;;;5055944;28;20468;-77
2022/12/11 12:19:43;;;;;;;12.00;7.13;;;12.10;52.60;;;;;;5051147;28;20493;-77
2022/12/11 12:22:19;;;;;;;10.03;6.53;;;12.10;52.60;;;;;;5046321;28;20431;-80
2022/12/11 12:24:55;;;;;;;11.37;6.73;;;12.10;52.50;;;;;;5052918;28;20474;-79
2022/12/11 12:27:26;;;;;;;12.97;7.20;;;12.10;52.70;;;;;;5046825;28;20457;-78
2022/12/11 12:30:15;;;;;;;11.53;7.00;;;12.10;52.50;;;;;;5042436;28;20442;-78
2022/12/11 12:33:04;;;;;;;11.00;6.97;;;12.10;52.60;;;;;;5056233;28;20462;-78
2022/12/11 12:35:35;;;;;;;11.97;7.07;;;12.10;52.40;;;;;;5048829;28;20439;-77
2022/12/11 12:38:07;;;;;;;16.40;8.87;;;12.10;52.40;;;;;;5055508;28;20455;-78
2022/12/11 12:40:38;;;;;;;16.57;9.00;;;12.10;52.40;;;;;;5056166;28;20446;-78
2022/12/11 12:43:26;;;;;;;16.73;9.97;;;12.10;52.30;;;;;;5054241;28;20440;-77
2022/12/11 12:45:59;;;;;;;16.77;9.60;;;12.10;52.40;;;;;;5054048;28;20457;-78
2022/12/11 12:48:27;;;;;;;18.73;10.00;;;12.10;52.50;;;;;;5059772;28;20538;-78
2022/12/11 12:50:55;;;;;;;16.03;9.50;;;12.10;52.40;;;;;;5047049;28;20439;-78
2022/12/11 12:53:24;;;;;;;22.67;11.63;;;12.10;52.60;;;;;;5056898;28;20442;-78
2022/12/11 12:55:54;;;;;;;19.03;11.30;;;12.10;52.60;;;;;;5057162;28;20447;-79
2022/12/11 12:58:27;;;;;;;21.30;11.90;;;12.00;52.50;;;;;;5061425;28;20480;-79